createdAt,value
2022-09-09T00:02:18.902Z,0.40
2022-09-09T00:05:00.196Z,0.40
2022-09-09T00:07:51.782Z,0.50
2022-09-09T00:10:32.855Z,0.50
2022-09-09T00:13:25.010Z,0.47
2022-09-09T00:16:00.541Z,0.40
2022-09-09T00:18:37.946Z,0.38
2022-09-09T00:21:18.833Z,0.50
2022-09-09T00:23:51.793Z,0.50
2022-09-09T00:26:31.332Z,0.68
2022-09-09T00:29:13.343Z,0.77
2022-09-09T00:31:40.770Z,0.40
2022-09-09T00:34:14.443Z,0.50
2022-09-09T00:36:42.899Z,0.50
2022-09-09T00:39:26.389Z,0.50
2022-09-09T00:42:16.669Z,0.55
2022-09-09T00:44:59.476Z,0.40
2022-09-09T00:47:54.793Z,0.30
2022-09-09T00:50:53.913Z,0.50
2022-09-09T00:53:23.681Z,0.40
2022-09-09T00:56:02.812Z,0.70
2022-09-09T00:58:30.055Z,0.50
2022-09-09T01:01:09.257Z,0.57
2022-09-09T01:03:46.617Z,0.68
2022-09-09T01:06:30.483Z,0.60
2022-09-09T01:09:22.223Z,0.60
2022-09-09T01:12:12.757Z,0.40
2022-09-09T01:14:48.766Z,0.38
2022-09-09T01:17:52.641Z,0.40
2022-09-09T01:20:50.506Z,0.30
2022-09-09T01:23:26.581Z,0.50
2022-09-09T01:26:33.935Z,0.30
2022-09-09T01:29:10.003Z,0.40
2022-09-09T01:31:42.340Z,0.45
2022-09-09T01:34:14.787Z,0.50
2022-09-09T01:36:53.973Z,0.50
2022-09-09T01:39:21.893Z,0.65
2022-09-09T01:41:57.222Z,0.40
2022-09-09T01:44:25.542Z,0.68
2022-09-09T01:46:52.524Z,0.40
2022-09-09T01:49:22.038Z,0.30
2022-09-09T01:51:57.350Z,0.32
2022-09-09T01:54:36.799Z,0.30
2022-09-09T01:57:24.176Z,0.40
2022-09-09T02:00:02.154Z,0.30
2022-09-09T02:02:53.680Z,0.20
2022-09-09T02:05:43.123Z,0.30
2022-09-09T02:08:27.337Z,0.20
2022-09-09T02:11:08.004Z,0.32
2022-09-09T02:13:47.200Z,0.32
2022-09-09T02:16:29.991Z,0.30
2022-09-09T02:19:13.808Z,0.40
2022-09-09T02:21:58.617Z,0.40
2022-09-09T02:24:29.217Z,0.20
2022-09-09T02:27:10.355Z,0.30
2022-09-09T02:29:42.343Z,0.30
2022-09-09T02:32:18.400Z,0.40
2022-09-09T02:34:52.662Z,0.30
2022-09-09T02:37:22.812Z,0.40
2022-09-09T02:39:53.497Z,0.22
2022-09-09T02:42:22.844Z,0.30
2022-09-09T02:44:51.753Z,0.45
2022-09-09T02:47:39.240Z,0.20
2022-09-09T02:50:27.006Z,0.25
2022-09-09T02:55:51.281Z,0.30
2022-09-09T02:58:21.963Z,0.30
2022-09-09T03:01:02.195Z,0.40
2022-09-09T03:03:31.332Z,0.40
2022-09-09T03:06:00.142Z,0.40
2022-09-09T03:08:28.730Z,0.40
2022-09-09T03:11:02.119Z,0.40
2022-09-09T03:13:31.643Z,0.30
2022-09-09T03:15:58.573Z,0.40
2022-09-09T03:18:26.561Z,0.32
2022-09-09T03:20:55.066Z,0.50
2022-09-09T03:23:22.907Z,0.32
2022-09-09T03:25:51.150Z,0.47
2022-09-09T03:28:22.109Z,0.43
2022-09-09T03:30:50.613Z,0.47
2022-09-09T03:33:18.777Z,0.50
2022-09-09T03:35:49.657Z,0.52
2022-09-09T03:38:18.925Z,0.50
2022-09-09T03:40:58.153Z,0.40
2022-09-09T03:43:26.654Z,0.40
2022-09-09T03:45:57.797Z,0.55
2022-09-09T03:48:29.036Z,0.60
2022-09-09T03:50:58.897Z,0.50
2022-09-09T03:53:26.693Z,0.63
2022-09-09T03:55:55.943Z,0.68
2022-09-09T03:58:25.303Z,0.50
2022-09-09T04:01:02.257Z,0.40
2022-09-09T04:03:30.222Z,0.63
2022-09-09T04:05:59.286Z,0.57
2022-09-09T04:08:28.927Z,0.55
2022-09-09T04:10:58.977Z,0.40
2022-09-09T04:13:27.551Z,0.50
2022-09-09T04:15:58.590Z,0.65
2022-09-09T04:18:27.023Z,0.50
2022-09-09T04:20:54.856Z,0.60
2022-09-09T04:23:26.548Z,0.68
2022-09-09T04:25:55.104Z,0.60
2022-09-09T04:28:24.594Z,0.90
2022-09-09T04:30:53.281Z,0.70
2022-09-09T04:33:20.860Z,0.60
2022-09-09T04:35:53.887Z,0.60
2022-09-09T04:38:24.010Z,0.55
2022-09-09T04:40:52.913Z,0.93
2022-09-09T04:43:20.089Z,0.50
2022-09-09T04:45:52.367Z,0.60
2022-09-09T04:48:22.379Z,0.70
2022-09-09T04:51:02.289Z,0.70
2022-09-09T04:53:30.260Z,0.80
2022-09-09T04:56:08.772Z,0.60
2022-09-09T04:58:43.919Z,0.52
2022-09-09T05:01:19.876Z,0.60
2022-09-09T05:03:53.119Z,0.60
2022-09-09T05:06:23.490Z,0.55
2022-09-09T05:08:55.591Z,0.40
2022-09-09T05:11:30.938Z,0.50
2022-09-09T05:14:02.233Z,0.60
2022-09-09T05:16:31.745Z,0.40
2022-09-09T05:19:00.088Z,0.57
2022-09-09T05:21:33.721Z,0.47
2022-09-09T05:24:01.586Z,0.57
2022-09-09T05:26:30.425Z,0.50
2022-09-09T05:29:00.017Z,0.70
2022-09-09T05:31:31.359Z,0.50
2022-09-09T05:34:01.169Z,0.38
2022-09-09T05:36:28.268Z,0.40
2022-09-09T05:38:56.986Z,0.50
2022-09-09T05:41:26.143Z,0.40
2022-09-09T05:43:55.861Z,0.55
2022-09-09T05:46:26.020Z,0.30
2022-09-09T05:48:54.856Z,0.55
2022-09-09T05:51:31.218Z,0.50
2022-09-09T05:54:00.248Z,0.50
2022-09-09T05:56:31.069Z,0.40
2022-09-09T05:59:01.175Z,0.50
2022-09-09T06:01:31.896Z,0.70
2022-09-09T06:03:59.837Z,0.68
2022-09-09T06:06:38.147Z,0.52
2022-09-09T06:09:11.444Z,0.52
2022-09-09T06:11:41.513Z,0.47
2022-09-09T06:14:09.693Z,0.50
2022-09-09T06:16:45.057Z,0.40
2022-09-09T06:19:19.599Z,0.47
2022-09-09T06:21:48.569Z,0.50
2022-09-09T06:24:20.328Z,0.50
2022-09-09T06:26:48.558Z,0.63
2022-09-09T06:29:23.096Z,0.50
2022-09-09T06:31:51.963Z,0.50
2022-09-09T06:34:22.781Z,0.40
2022-09-09T06:37:00.977Z,0.40
2022-09-09T06:39:35.767Z,0.68
2022-09-09T06:42:03.406Z,0.52
2022-09-09T06:44:49.186Z,0.63
2022-09-09T06:47:26.528Z,0.60
2022-09-09T06:49:55.320Z,0.43
2022-09-09T06:52:22.337Z,0.80
2022-09-09T06:54:50.904Z,0.50
2022-09-09T06:57:36.398Z,0.70
2022-09-09T07:00:07.384Z,0.60
2022-09-09T07:02:39.910Z,0.47
2022-09-09T07:05:09.387Z,0.40
2022-09-09T07:07:37.723Z,0.50
2022-09-09T07:10:05.906Z,0.50
2022-09-09T07:12:33.772Z,0.60
2022-09-09T07:15:01.496Z,0.52
2022-09-09T07:17:30.056Z,0.60
2022-09-09T07:19:58.397Z,0.80
2022-09-09T07:22:26.450Z,0.50
2022-09-09T07:24:53.917Z,0.80
2022-09-09T07:27:20.992Z,0.93
2022-09-09T07:29:49.693Z,0.73
2022-09-09T07:32:17.768Z,0.60
2022-09-09T07:34:44.726Z,0.70
2022-09-09T07:37:13.756Z,0.70
2022-09-09T07:39:43.792Z,1.00
2022-09-09T07:42:12.719Z,0.55
2022-09-09T07:44:40.785Z,0.85
2022-09-09T07:47:13.948Z,0.50
2022-09-09T07:49:47.229Z,0.60
2022-09-09T07:52:19.672Z,0.90
2022-09-09T07:54:50.831Z,0.68
2022-09-09T07:57:22.061Z,0.70
2022-09-09T07:59:49.087Z,1.13
2022-09-09T08:02:16.013Z,0.57
2022-09-09T08:04:42.988Z,0.55
2022-09-09T08:07:11.656Z,0.60
2022-09-09T08:09:45.518Z,0.50
2022-09-09T08:12:24.321Z,0.70
2022-09-09T08:14:52.684Z,0.73
2022-09-09T08:17:23.161Z,0.70
2022-09-09T08:19:51.221Z,0.60
2022-09-09T08:22:23.216Z,0.57
2022-09-09T08:24:50.982Z,0.73
2022-09-09T08:27:19.209Z,0.80
2022-09-09T08:29:46.163Z,0.50
2022-09-09T08:32:14.481Z,0.43
2022-09-09T08:34:46.737Z,0.90
2022-09-09T08:37:18.763Z,0.60
2022-09-09T08:39:45.845Z,0.60
2022-09-09T08:42:24.702Z,0.50
2022-09-09T08:45:15.660Z,0.70
2022-09-09T08:47:58.126Z,0.90
2022-09-09T08:50:34.929Z,0.50
2022-09-09T08:53:09.374Z,0.73
2022-09-09T08:55:49.174Z,0.45
2022-09-09T08:58:44.985Z,0.50
2022-09-09T09:01:49.895Z,0.40
2022-09-09T09:04:38.510Z,0.40
2022-09-09T09:07:06.121Z,0.40
2022-09-09T09:10:05.050Z,0.40
2022-09-09T09:12:42.615Z,0.55
2022-09-09T09:15:22.239Z,0.50
2022-09-09T09:17:51.289Z,0.30
2022-09-09T09:20:42.662Z,0.40
2022-09-09T09:23:22.102Z,0.43
2022-09-09T09:25:52.519Z,0.40
2022-09-09T09:28:23.120Z,0.50
2022-09-09T09:31:08.034Z,0.52
2022-09-09T09:33:50.562Z,0.30
2022-09-09T09:41:46.737Z,0.32
2022-09-09T09:44:30.064Z,0.30
2022-09-09T09:47:23.448Z,0.40
2022-09-09T09:50:02.127Z,0.38
2022-09-09T09:52:35.985Z,0.40
2022-09-09T09:55:08.308Z,0.45
2022-09-09T10:00:15.775Z,0.30
2022-09-09T10:02:45.083Z,0.45
2022-09-09T10:05:26.521Z,0.70
2022-09-09T10:08:13.992Z,0.40
2022-09-09T10:10:48.146Z,0.50
2022-09-09T10:13:34.449Z,0.50
2022-09-09T10:16:05.454Z,0.40
2022-09-09T10:19:08.020Z,0.50
2022-09-09T10:21:49.911Z,0.82
2022-09-09T10:24:42.471Z,0.50
2022-09-09T10:27:24.511Z,0.22
2022-09-09T10:29:57.165Z,0.57
2022-09-09T10:32:43.036Z,0.40
2022-09-09T10:35:30.283Z,0.30
2022-09-09T10:38:18.098Z,0.30
2022-09-09T10:40:52.411Z,0.40
2022-09-09T10:43:47.097Z,0.60
2022-09-09T10:46:33.561Z,0.32
2022-09-09T10:49:01.087Z,0.40
2022-09-09T10:51:57.525Z,0.40
2022-09-09T10:54:56.129Z,0.45
2022-09-09T10:57:31.709Z,0.40
2022-09-09T11:00:04.977Z,0.40
2022-09-09T11:02:34.497Z,0.40
2022-09-09T11:05:30.047Z,0.40
2022-09-09T11:08:05.889Z,0.40
2022-09-09T11:10:40.249Z,0.30
2022-09-09T11:13:21.831Z,0.40
2022-09-09T11:15:53.113Z,0.40
2022-09-09T11:18:24.642Z,0.40
2022-09-09T11:20:57.726Z,0.32
2022-09-09T11:23:42.027Z,0.30
2022-09-09T11:26:16.638Z,0.50
2022-09-09T11:29:16.921Z,0.47
2022-09-09T11:32:02.592Z,0.40
2022-09-09T11:34:51.340Z,0.40
2022-09-09T11:37:39.113Z,0.35
2022-09-09T11:40:20.266Z,0.30
2022-09-09T11:42:50.866Z,0.50
2022-09-09T11:45:25.377Z,0.70
2022-09-09T11:47:57.498Z,0.88
2022-09-09T11:50:24.388Z,0.52
2022-09-09T11:52:52.821Z,0.50
2022-09-09T11:55:27.511Z,0.38
2022-09-09T11:58:01.390Z,0.20
2022-09-09T12:00:42.958Z,0.30
2022-09-09T12:03:41.164Z,0.55
2022-09-09T12:06:28.970Z,0.70
2022-09-09T12:09:07.548Z,0.30
2022-09-09T12:11:34.482Z,0.40
2022-09-09T12:14:02.142Z,0.30
2022-09-09T12:16:35.467Z,0.30
2022-09-09T12:19:22.022Z,0.30
2022-09-09T12:22:26.308Z,0.52
2022-09-09T12:25:07.535Z,0.40
2022-09-09T12:28:05.275Z,0.40
2022-09-09T12:30:58.280Z,0.40
2022-09-09T12:33:25.889Z,0.40
2022-09-09T12:35:58.570Z,0.30
2022-09-09T12:38:34.397Z,0.40
2022-09-09T12:41:01.817Z,0.30
2022-09-09T12:43:29.992Z,0.40
2022-09-09T12:46:03.703Z,0.40
2022-09-09T12:48:41.503Z,0.30
2022-09-09T12:51:29.442Z,0.25
2022-09-09T12:53:57.554Z,0.40
2022-09-09T12:56:28.085Z,0.40
2022-09-09T12:58:57.243Z,0.30
2022-09-09T13:01:27.235Z,0.30
2022-09-09T13:03:54.752Z,0.35
2022-09-09T13:06:28.775Z,0.30
2022-09-09T13:09:02.633Z,0.30
2022-09-09T13:11:47.762Z,0.40
2022-09-09T13:14:21.701Z,0.40
2022-09-09T13:17:04.472Z,0.30
2022-09-09T13:19:36.449Z,0.30
2022-09-09T13:22:14.934Z,0.40
2022-09-09T13:24:43.620Z,0.30
2022-09-09T13:27:31.946Z,0.40
2022-09-09T13:29:58.913Z,0.70
2022-09-09T13:32:29.794Z,0.30
2022-09-09T13:35:02.621Z,0.40
2022-09-09T13:37:42.339Z,0.40
2022-09-09T13:40:21.142Z,0.60
2022-09-09T13:42:48.959Z,0.30
2022-09-09T13:45:22.326Z,0.30
2022-09-09T13:47:53.362Z,0.30
2022-09-09T13:50:30.711Z,0.52
2022-09-09T13:52:59.857Z,0.40
2022-09-09T13:55:31.019Z,0.40
2022-09-09T13:58:01.684Z,0.50
2022-09-09T14:00:32.124Z,0.20
2022-09-09T14:02:59.298Z,0.40
2022-09-09T14:05:26.365Z,2.38
2022-09-09T14:07:53.538Z,5.30
2022-09-09T14:10:21.082Z,2.78
2022-09-09T14:12:47.962Z,2.08
2022-09-09T14:15:15.556Z,1.15
2022-09-09T14:17:43.427Z,1.00
2022-09-09T14:20:13.159Z,0.70
2022-09-09T14:22:42.590Z,0.52
2022-09-09T14:25:09.746Z,0.73
2022-09-09T14:27:36.811Z,0.40
2022-09-09T14:30:04.187Z,0.50
2022-09-09T14:32:31.350Z,0.60
2022-09-09T14:34:58.366Z,0.65
2022-09-09T14:37:25.329Z,0.40
2022-09-09T14:39:52.690Z,0.30
2022-09-09T14:42:19.851Z,0.55
2022-09-09T14:44:46.738Z,0.50
2022-09-09T14:47:13.636Z,0.47
2022-09-09T14:49:42.585Z,0.60
2022-09-09T14:52:12.283Z,0.50
2022-09-09T14:54:39.315Z,0.43
2022-09-09T14:57:06.270Z,0.40
2022-09-09T14:59:33.138Z,0.25
2022-09-09T15:02:04.961Z,0.30
2022-09-09T15:04:32.017Z,0.55
2022-09-09T15:06:59.982Z,0.40
2022-09-09T15:09:26.992Z,0.60
2022-09-09T15:11:53.985Z,0.30
2022-09-09T15:14:22.551Z,0.30
2022-09-09T15:16:52.429Z,0.30
2022-09-09T15:19:19.359Z,0.30
2022-09-09T15:21:46.293Z,0.30
2022-09-09T15:24:14.326Z,0.30
2022-09-09T15:26:41.272Z,0.30
2022-09-09T15:29:09.442Z,0.35
2022-09-09T15:31:37.288Z,0.30
2022-09-09T15:34:08.653Z,0.50
2022-09-09T15:36:48.996Z,0.20
2022-09-09T15:39:18.332Z,0.40
2022-09-09T15:41:47.927Z,0.22
2022-09-09T15:44:16.453Z,0.20
2022-09-09T15:46:50.910Z,0.30
2022-09-09T15:49:20.115Z,0.30
2022-09-09T15:51:51.280Z,0.30
2022-09-09T15:54:20.849Z,0.20
2022-09-09T15:56:51.571Z,0.30
2022-09-09T15:59:19.245Z,0.30
2022-09-09T16:01:49.188Z,0.30
2022-09-09T16:04:21.265Z,0.30
2022-09-09T16:06:48.141Z,0.30
2022-09-09T16:09:15.035Z,1.00
2022-09-09T16:11:41.992Z,0.50
2022-09-09T16:14:09.384Z,0.52
2022-09-09T16:16:36.596Z,0.40
2022-09-09T16:19:13.964Z,0.22
2022-09-09T16:21:49.214Z,0.30
2022-09-09T16:24:19.258Z,0.40
2022-09-09T16:26:49.910Z,0.30
2022-09-09T16:29:18.421Z,0.20
2022-09-09T16:31:47.916Z,0.40
2022-09-09T16:34:16.532Z,0.25
2022-09-09T16:36:45.000Z,0.43
2022-09-09T16:39:17.888Z,0.40
2022-09-09T16:41:46.529Z,0.40
2022-09-09T16:44:14.908Z,0.40
2022-09-09T16:46:43.975Z,0.40
2022-09-09T16:49:13.250Z,0.40
2022-09-09T16:51:43.503Z,0.50
2022-09-09T16:54:12.190Z,0.50
2022-09-09T16:56:44.854Z,0.30
2022-09-09T16:59:19.441Z,0.50
2022-09-09T17:01:50.041Z,0.60
2022-09-09T17:04:21.881Z,0.40
2022-09-09T17:06:53.335Z,0.60
2022-09-09T17:09:21.844Z,0.47
2022-09-09T17:11:51.458Z,0.50
2022-09-09T17:14:20.102Z,0.50
2022-09-09T17:16:47.688Z,0.68
2022-09-09T17:19:15.346Z,0.38
2022-09-09T17:22:00.409Z,0.40
2022-09-09T17:24:30.316Z,0.50
2022-09-09T17:27:00.139Z,0.32
2022-09-09T17:29:27.164Z,0.40
2022-09-09T17:31:54.556Z,0.50
2022-09-09T17:34:21.842Z,0.50
2022-09-09T17:36:49.183Z,0.50
2022-09-09T17:39:16.430Z,0.60
2022-09-09T17:41:43.389Z,0.40
2022-09-09T17:44:11.079Z,0.65
2022-09-09T17:46:41.564Z,0.45
2022-09-09T17:49:14.737Z,0.40
2022-09-09T17:51:42.890Z,0.50
2022-09-09T17:54:13.143Z,0.40
2022-09-09T17:56:41.123Z,0.55
2022-09-09T17:59:10.838Z,0.60
2022-09-09T18:01:40.532Z,0.50
2022-09-09T18:04:09.839Z,0.50
2022-09-09T18:06:43.608Z,0.68
2022-09-09T18:09:15.531Z,0.50
2022-09-09T18:11:45.446Z,0.70
2022-09-09T18:14:25.158Z,0.60
2022-09-09T18:16:52.589Z,0.60
2022-09-09T18:19:22.682Z,0.50
2022-09-09T18:21:50.181Z,0.60
2022-09-09T18:24:19.032Z,0.45
2022-09-09T18:26:48.628Z,0.50
2022-09-09T18:29:23.581Z,0.50
2022-09-09T18:31:50.710Z,0.70
2022-09-09T18:34:20.009Z,0.63
2022-09-09T18:36:52.262Z,0.60
2022-09-09T18:39:20.054Z,0.50
2022-09-09T18:41:53.028Z,0.90
2022-09-09T18:44:24.734Z,0.70
2022-09-09T18:46:52.595Z,0.57
2022-09-09T18:49:21.761Z,0.60
2022-09-09T18:51:48.746Z,0.70
2022-09-09T18:54:20.854Z,0.50
2022-09-09T18:56:48.794Z,0.63
2022-09-09T18:59:21.630Z,0.80
2022-09-09T19:01:50.590Z,0.70
2022-09-09T19:04:22.165Z,0.70
2022-09-09T19:06:51.729Z,0.77
2022-09-09T19:09:19.355Z,0.73
2022-09-09T19:11:46.942Z,0.63
2022-09-09T19:14:16.566Z,0.68
2022-09-09T19:16:45.338Z,0.80
2022-09-09T19:19:15.718Z,0.70
2022-09-09T19:21:43.720Z,0.70
2022-09-09T19:24:18.225Z,0.60
2022-09-09T19:26:52.267Z,0.73
2022-09-09T19:29:24.873Z,0.90
2022-09-09T19:32:36.441Z,0.98
2022-09-09T19:34:44.125Z,0.98
2022-09-09T19:37:18.110Z,0.90
2022-09-09T19:39:49.833Z,0.93
2022-09-09T19:42:19.067Z,0.90
2022-09-09T19:44:46.694Z,1.00
2022-09-09T19:47:15.192Z,0.90
2022-09-09T19:49:46.712Z,0.90
2022-09-09T19:52:14.619Z,0.68
2022-09-09T19:54:41.615Z,0.80
2022-09-09T19:57:08.495Z,1.00
2022-09-09T19:59:35.975Z,0.90
2022-09-09T20:02:03.017Z,0.77
2022-09-09T20:04:30.051Z,0.95
2022-09-09T20:06:57.108Z,0.93
2022-09-09T20:09:26.074Z,0.80
2022-09-09T20:11:53.324Z,1.05
2022-09-09T20:14:20.412Z,1.00
2022-09-09T20:16:49.718Z,1.00
2022-09-09T20:19:16.640Z,0.80
2022-09-09T20:21:48.157Z,0.98
2022-09-09T20:24:18.740Z,0.85
2022-09-09T20:26:48.309Z,0.90
2022-09-09T20:29:18.412Z,0.90
2022-09-09T20:31:45.599Z,0.70
2022-09-09T20:34:15.774Z,0.93
2022-09-09T20:36:43.520Z,0.70
2022-09-09T20:39:15.034Z,0.80
2022-09-09T20:41:44.438Z,0.88
2022-09-09T20:44:19.284Z,1.20
2022-09-09T20:46:48.989Z,1.13
2022-09-09T20:49:18.455Z,1.10
2022-09-09T20:51:47.078Z,1.05
2022-09-09T20:54:20.123Z,0.65
2022-09-09T20:56:48.463Z,1.15
2022-09-09T20:59:19.333Z,0.80
2022-09-09T21:01:47.783Z,1.00
2022-09-09T21:04:17.617Z,1.10
2022-09-09T21:06:45.338Z,1.08
2022-09-09T21:09:13.837Z,0.98
2022-09-09T21:11:40.725Z,1.00
2022-09-09T21:14:07.828Z,0.93
2022-09-09T21:16:34.705Z,1.35
2022-09-09T21:19:01.628Z,1.35
2022-09-09T21:21:28.653Z,1.30
2022-09-09T21:23:58.276Z,1.00
2022-09-09T21:26:26.829Z,1.20
2022-09-09T21:28:54.966Z,0.85
2022-09-09T21:31:27.502Z,1.50
2022-09-09T21:33:58.754Z,1.10
2022-09-09T21:36:28.185Z,1.63
2022-09-09T21:38:55.542Z,1.30
2022-09-09T21:41:22.457Z,1.25
2022-09-09T21:43:53.090Z,1.25
2022-09-09T21:46:20.682Z,1.50
2022-09-09T21:48:47.635Z,1.75
2022-09-09T21:51:16.709Z,1.63
2022-09-09T21:53:43.846Z,1.67
2022-09-09T21:56:13.263Z,1.80
2022-09-09T21:58:41.259Z,1.30
2022-09-09T22:01:18.838Z,1.83
2022-09-09T22:03:46.533Z,1.35
2022-09-09T22:06:15.670Z,1.30
2022-09-09T22:08:43.023Z,1.30
2022-09-09T22:11:16.725Z,1.10
2022-09-09T22:13:47.209Z,1.10
2022-09-09T22:16:19.034Z,1.08
2022-09-09T22:18:51.772Z,1.10
2022-09-09T22:21:19.187Z,1.02
2022-09-09T22:23:53.039Z,0.98
2022-09-09T22:26:20.489Z,0.70
2022-09-09T22:28:49.790Z,1.00
2022-09-09T22:31:16.774Z,0.73
2022-09-09T22:33:43.687Z,0.70
2022-09-09T22:36:10.568Z,0.75
2022-09-09T22:38:37.767Z,0.80
2022-09-09T22:41:06.288Z,0.63
2022-09-09T22:43:34.023Z,0.85
2022-09-09T22:46:02.324Z,0.80
2022-09-09T22:48:37.299Z,0.60
2022-09-09T22:51:10.440Z,0.70
2022-09-09T22:53:39.088Z,0.73
2022-09-09T22:56:08.172Z,0.75
2022-09-09T22:58:38.004Z,0.80
2022-09-09T23:01:14.766Z,0.73
2022-09-09T23:03:42.424Z,0.60
2022-09-09T23:06:17.963Z,0.60
2022-09-09T23:08:46.583Z,0.70
2022-09-09T23:11:14.354Z,0.70
2022-09-09T23:13:46.917Z,0.82
2022-09-09T23:16:18.949Z,0.80
2022-09-09T23:18:46.039Z,0.60
2022-09-09T23:21:14.893Z,0.70
2022-09-09T23:23:43.178Z,1.10
2022-09-09T23:26:12.408Z,0.90
2022-09-09T23:28:43.748Z,0.85
2022-09-09T23:31:13.499Z,0.90
2022-09-09T23:33:41.352Z,0.82
2022-09-09T23:36:11.548Z,0.70
2022-09-09T23:38:40.212Z,0.70
2022-09-09T23:41:09.696Z,0.70
2022-09-09T23:43:39.784Z,0.70
2022-09-09T23:46:12.102Z,0.88
2022-09-09T23:48:39.534Z,0.85
2022-09-09T23:51:18.581Z,0.77
2022-09-09T23:53:50.990Z,0.95
2022-09-09T23:58:46.897Z,0.95
